sensor_id;sensor_type;location;lat;lon;timestamp;temperature;humidity
61000;SHT31;46879;45.658;11.814;2023-07-20T00:02:05;25.93;50.36
61000;SHT31;46879;45.658;11.814;2023-07-20T00:07:07;25.93;50.64
61000;SHT31;46879;45.658;11.814;2023-07-20T00:12:08;25.89;49.94
61000;SHT31;46879;45.658;11.814;2023-07-20T00:17:09;25.86;51.44
61000;SHT31;46879;45.658;11.814;2023-07-20T00:22:09;25.94;51.97
61000;SHT31;46879;45.658;11.814;2023-07-20T00:27:10;25.89;50.41
61000;SHT31;46879;45.658;11.814;2023-07-20T00:32:10;25.79;51.84
61000;SHT31;46879;45.658;11.814;2023-07-20T00:37:11;25.83;53.00
61000;SHT31;46879;45.658;11.814;2023-07-20T00:42:12;25.84;51.22
61000;SHT31;46879;45.658;11.814;2023-07-20T00:47:13;25.93;51.44
61000;SHT31;46879;45.658;11.814;2023-07-20T00:52:14;25.81;52.76
61000;SHT31;46879;45.658;11.814;2023-07-20T00:57:15;25.84;53.49
61000;SHT31;46879;45.658;11.814;2023-07-20T01:02:17;25.87;54.16
61000;SHT31;46879;45.658;11.814;2023-07-20T01:07:26;25.90;51.99
61000;SHT31;46879;45.658;11.814;2023-07-20T01:12:47;25.73;53.00
61000;SHT31;46879;45.658;11.814;2023-07-20T01:17:48;25.79;53.88
61000;SHT31;46879;45.658;11.814;2023-07-20T01:33:48;25.76;53.74
61000;SHT31;46879;45.658;11.814;2023-07-20T01:38:49;25.87;54.28
61000;SHT31;46879;45.658;11.814;2023-07-20T01:43:50;25.93;54.09
61000;SHT31;46879;45.658;11.814;2023-07-20T01:48:51;25.89;52.52
61000;SHT31;46879;45.658;11.814;2023-07-20T01:53:52;25.74;54.13
61000;SHT31;46879;45.658;11.814;2023-07-20T01:58:53;25.84;54.84
61000;SHT31;46879;45.658;11.814;2023-07-20T02:03:53;25.91;53.60
61000;SHT31;46879;45.658;11.814;2023-07-20T02:08:54;25.76;53.14
61000;SHT31;46879;45.658;11.814;2023-07-20T02:13:55;25.72;54.56
61000;SHT31;46879;45.658;11.814;2023-07-20T02:18:56;25.84;54.52
61000;SHT31;46879;45.658;11.814;2023-07-20T02:23:57;25.86;52.99
61000;SHT31;46879;45.658;11.814;2023-07-20T02:28:57;25.67;53.28
61000;SHT31;46879;45.658;11.814;2023-07-20T02:33:58;25.70;54.38
61000;SHT31;46879;45.658;11.814;2023-07-20T02:38:59;25.84;54.03
61000;SHT31;46879;45.658;11.814;2023-07-20T02:44:00;25.89;53.07
61000;SHT31;46879;45.658;11.814;2023-07-20T02:49:01;25.76;52.34
61000;SHT31;46879;45.658;11.814;2023-07-20T02:54:02;25.77;53.56
61000;SHT31;46879;45.658;11.814;2023-07-20T02:59:03;25.80;53.86
61000;SHT31;46879;45.658;11.814;2023-07-20T03:04:04;25.86;53.72
61000;SHT31;46879;45.658;11.814;2023-07-20T03:09:05;25.90;53.46
61000;SHT31;46879;45.658;11.814;2023-07-20T03:14:07;25.81;52.17
61000;SHT31;46879;45.658;11.814;2023-07-20T03:19:07;25.79;53.22
61000;SHT31;46879;45.658;11.814;2023-07-20T03:24:08;25.74;53.92
61000;SHT31;46879;45.658;11.814;2023-07-20T03:29:09;25.86;53.61
61000;SHT31;46879;45.658;11.814;2023-07-20T03:34:10;25.89;52.80
61000;SHT31;46879;45.658;11.814;2023-07-20T03:39:10;25.67;52.13
61000;SHT31;46879;45.658;11.814;2023-07-20T03:44:11;25.62;53.64
61000;SHT31;46879;45.658;11.814;2023-07-20T03:49:12;25.73;53.68
61000;SHT31;46879;45.658;11.814;2023-07-20T03:54:12;25.87;53.30
61000;SHT31;46879;45.658;11.814;2023-07-20T03:59:13;25.65;52.81
61000;SHT31;46879;45.658;11.814;2023-07-20T04:04:15;24.86;53.26
61000;SHT31;46879;45.658;11.814;2023-07-20T04:09:16;24.83;55.53
61000;SHT31;46879;45.658;11.814;2023-07-20T04:14:17;25.22;54.68
61000;SHT31;46879;45.658;11.814;2023-07-20T04:19:17;25.50;53.90
61000;SHT31;46879;45.658;11.814;2023-07-20T04:24:18;25.56;53.63
61000;SHT31;46879;45.658;11.814;2023-07-20T04:29:19;25.50;53.68
61000;SHT31;46879;45.658;11.814;2023-07-20T04:34:19;25.46;53.90
61000;SHT31;46879;45.658;11.814;2023-07-20T04:39:20;25.46;54.09
61000;SHT31;46879;45.658;11.814;2023-07-20T04:44:20;25.45;54.35
61000;SHT31;46879;45.658;11.814;2023-07-20T04:49:21;25.43;54.60
61000;SHT31;46879;45.658;11.814;2023-07-20T04:54:22;25.41;54.89
61000;SHT31;46879;45.658;11.814;2023-07-20T04:59:22;25.38;55.32
61000;SHT31;46879;45.658;11.814;2023-07-20T05:04:23;25.32;55.73
61000;SHT31;46879;45.658;11.814;2023-07-20T05:09:23;24.62;55.09
61000;SHT31;46879;45.658;11.814;2023-07-20T05:14:24;24.81;57.04
61000;SHT31;46879;45.658;11.814;2023-07-20T05:19:25;25.24;55.94
61000;SHT31;46879;45.658;11.814;2023-07-20T05:24:26;25.43;55.18
61000;SHT31;46879;45.658;11.814;2023-07-20T05:29:26;25.47;54.85
61000;SHT31;46879;45.658;11.814;2023-07-20T05:34:27;25.49;54.75
61000;SHT31;46879;45.658;11.814;2023-07-20T05:39:28;25.46;54.79
61000;SHT31;46879;45.658;11.814;2023-07-20T05:44:28;25.43;54.82
61000;SHT31;46879;45.658;11.814;2023-07-20T05:49:29;25.49;55.10
61000;SHT31;46879;45.658;11.814;2023-07-20T05:54:29;24.70;54.88
61000;SHT31;46879;45.658;11.814;2023-07-20T05:59:30;24.88;56.88
61000;SHT31;46879;45.658;11.814;2023-07-20T06:04:32;25.17;56.23
61000;SHT31;46879;45.658;11.814;2023-07-20T06:09:33;25.41;55.82
61000;SHT31;46879;45.658;11.814;2023-07-20T06:14:35;25.46;55.65
61000;SHT31;46879;45.658;11.814;2023-07-20T06:19:35;25.46;56.05
61000;SHT31;46879;45.658;11.814;2023-07-20T06:24:36;25.45;56.43
61000;SHT31;46879;45.658;11.814;2023-07-20T06:29:36;25.41;57.09
61000;SHT31;46879;45.658;11.814;2023-07-20T06:34:37;25.35;57.94
61000;SHT31;46879;45.658;11.814;2023-07-20T06:39:38;25.53;57.81
61000;SHT31;46879;45.658;11.814;2023-07-20T06:44:39;25.91;56.64
61000;SHT31;46879;45.658;11.814;2023-07-20T06:49:40;26.13;56.15
61000;SHT31;46879;45.658;11.814;2023-07-20T06:54:40;26.24;55.92
61000;SHT31;46879;45.658;11.814;2023-07-20T06:59:41;26.35;55.72
61000;SHT31;46879;45.658;11.814;2023-07-20T07:04:42;26.45;56.25
61000;SHT31;46879;45.658;11.814;2023-07-20T07:09:43;26.87;61.98
61000;SHT31;46879;45.658;11.814;2023-07-20T07:14:43;27.10;63.96
61000;SHT31;46879;45.658;11.814;2023-07-20T07:19:44;27.15;64.46
61000;SHT31;46879;45.658;11.814;2023-07-20T07:24:44;27.18;64.34
61000;SHT31;46879;45.658;11.814;2023-07-20T07:29:45;27.24;64.28
61000;SHT31;46879;45.658;11.814;2023-07-20T07:34:46;27.28;64.17
61000;SHT31;46879;45.658;11.814;2023-07-20T07:39:47;27.30;64.00
61000;SHT31;46879;45.658;11.814;2023-07-20T07:44:48;27.35;63.83
61000;SHT31;46879;45.658;11.814;2023-07-20T07:49:49;27.38;63.51
61000;SHT31;46879;45.658;11.814;2023-07-20T07:54:50;27.39;63.45
61000;SHT31;46879;45.658;11.814;2023-07-20T07:59:50;27.45;63.43
61000;SHT31;46879;45.658;11.814;2023-07-20T08:04:51;27.48;63.60
61000;SHT31;46879;45.658;11.814;2023-07-20T08:09:52;27.49;63.45
61000;SHT31;46879;45.658;11.814;2023-07-20T08:14:53;27.49;63.42
61000;SHT31;46879;45.658;11.814;2023-07-20T08:19:53;27.55;63.22
61000;SHT31;46879;45.658;11.814;2023-07-20T08:24:54;27.60;63.22
61000;SHT31;46879;45.658;11.814;2023-07-20T08:29:55;27.60;62.90
61000;SHT31;46879;45.658;11.814;2023-07-20T08:34:55;27.63;62.84
61000;SHT31;46879;45.658;11.814;2023-07-20T08:39:56;27.65;62.45
61000;SHT31;46879;45.658;11.814;2023-07-20T08:44:57;27.66;61.93
61000;SHT31;46879;45.658;11.814;2023-07-20T08:49:59;27.70;62.15
61000;SHT31;46879;45.658;11.814;2023-07-20T08:55:00;27.70;61.71
61000;SHT31;46879;45.658;11.814;2023-07-20T09:00:04;27.73;61.23
61000;SHT31;46879;45.658;11.814;2023-07-20T09:05:08;27.77;61.53
61000;SHT31;46879;45.658;11.814;2023-07-20T09:10:10;27.77;61.36
61000;SHT31;46879;45.658;11.814;2023-07-20T09:15:12;27.83;61.31
61000;SHT31;46879;45.658;11.814;2023-07-20T09:20:16;27.83;61.51
61000;SHT31;46879;45.658;11.814;2023-07-20T09:25:18;27.85;61.52
61000;SHT31;46879;45.658;11.814;2023-07-20T09:30:25;27.89;61.25
61000;SHT31;46879;45.658;11.814;2023-07-20T09:35:26;27.89;61.35
61000;SHT31;46879;45.658;11.814;2023-07-20T09:40:27;27.87;61.18
61000;SHT31;46879;45.658;11.814;2023-07-20T09:45:30;27.89;60.91
61000;SHT31;46879;45.658;11.814;2023-07-20T09:50:34;27.90;61.06
61000;SHT31;46879;45.658;11.814;2023-07-20T09:55:35;28.01;60.85
61000;SHT31;46879;45.658;11.814;2023-07-20T10:00:38;27.98;60.93
61000;SHT31;46879;45.658;11.814;2023-07-20T10:05:43;28.00;60.83
61000;SHT31;46879;45.658;11.814;2023-07-20T10:10:43;27.98;60.78
61000;SHT31;46879;45.658;11.814;2023-07-20T10:15:53;28.03;60.92
61000;SHT31;46879;45.658;11.814;2023-07-20T10:20:55;28.04;60.79
61000;SHT31;46879;45.658;11.814;2023-07-20T10:25:57;28.04;60.72
61000;SHT31;46879;45.658;11.814;2023-07-20T10:30:58;28.08;60.71
61000;SHT31;46879;45.658;11.814;2023-07-20T10:36:04;28.07;60.34
61000;SHT31;46879;45.658;11.814;2023-07-20T10:41:37;28.10;60.45
61000;SHT31;46879;45.658;11.814;2023-07-20T10:51:47;28.13;60.06
61000;SHT31;46879;45.658;11.814;2023-07-20T10:56:48;28.13;59.79
61000;SHT31;46879;45.658;11.814;2023-07-20T11:01:49;28.13;59.70
61000;SHT31;46879;45.658;11.814;2023-07-20T11:06:56;28.11;59.49
61000;SHT31;46879;45.658;11.814;2023-07-20T11:12:10;28.14;59.61
61000;SHT31;46879;45.658;11.814;2023-07-20T11:17:14;28.18;59.57
61000;SHT31;46879;45.658;11.814;2023-07-20T11:22:17;28.21;59.02
61000;SHT31;46879;45.658;11.814;2023-07-20T11:27:18;28.18;59.05
61000;SHT31;46879;45.658;11.814;2023-07-20T11:32:23;28.20;59.09
61000;SHT31;46879;45.658;11.814;2023-07-20T11:37:24;28.20;59.06
61000;SHT31;46879;45.658;11.814;2023-07-20T11:42:25;28.17;59.03
61000;SHT31;46879;45.658;11.814;2023-07-20T11:47:29;28.24;58.61
61000;SHT31;46879;45.658;11.814;2023-07-20T11:52:30;28.21;58.50
61000;SHT31;46879;45.658;11.814;2023-07-20T11:57:31;28.24;58.45
61000;SHT31;46879;45.658;11.814;2023-07-20T12:02:32;28.25;58.34
61000;SHT31;46879;45.658;11.814;2023-07-20T12:07:36;28.25;58.56
61000;SHT31;46879;45.658;11.814;2023-07-20T12:12:41;28.24;58.54
61000;SHT31;46879;45.658;11.814;2023-07-20T12:17:46;28.27;58.30
61000;SHT31;46879;45.658;11.814;2023-07-20T12:22:49;28.28;57.68
61000;SHT31;46879;45.658;11.814;2023-07-20T12:27:49;28.28;56.80
61000;SHT31;46879;45.658;11.814;2023-07-20T12:32:50;28.28;57.01
61000;SHT31;46879;45.658;11.814;2023-07-20T12:37:50;28.25;57.23
61000;SHT31;46879;45.658;11.814;2023-07-20T12:42:52;28.28;57.59
61000;SHT31;46879;45.658;11.814;2023-07-20T12:47:52;28.32;57.24
61000;SHT31;46879;45.658;11.814;2023-07-20T12:52:53;28.29;57.74
61000;SHT31;46879;45.658;11.814;2023-07-20T12:57:54;28.35;58.13
61000;SHT31;46879;45.658;11.814;2023-07-20T13:02:54;28.34;58.49
61000;SHT31;46879;45.658;11.814;2023-07-20T13:07:55;28.37;58.51
61000;SHT31;46879;45.658;11.814;2023-07-20T13:12:56;28.40;58.68
61000;SHT31;46879;45.658;11.814;2023-07-20T13:17:56;28.41;58.78
61000;SHT31;46879;45.658;11.814;2023-07-20T13:22:57;28.40;58.82
61000;SHT31;46879;45.658;11.814;2023-07-20T13:27:57;28.42;59.00
61000;SHT31;46879;45.658;11.814;2023-07-20T13:32:58;28.44;59.09
61000;SHT31;46879;45.658;11.814;2023-07-20T13:37:59;28.48;59.03
61000;SHT31;46879;45.658;11.814;2023-07-20T13:42:59;28.58;59.62
61000;SHT31;46879;45.658;11.814;2023-07-20T13:48:00;28.52;59.16
61000;SHT31;46879;45.658;11.814;2023-07-20T13:53:00;28.55;59.67
61000;SHT31;46879;45.658;11.814;2023-07-20T13:58:03;28.52;59.53
61000;SHT31;46879;45.658;11.814;2023-07-20T14:03:03;28.53;59.40
61000;SHT31;46879;45.658;11.814;2023-07-20T14:08:04;28.55;59.41
61000;SHT31;46879;45.658;11.814;2023-07-20T14:13:05;28.53;59.27
61000;SHT31;46879;45.658;11.814;2023-07-20T14:18:06;28.52;59.34
61000;SHT31;46879;45.658;11.814;2023-07-20T14:23:06;28.56;59.55
61000;SHT31;46879;45.658;11.814;2023-07-20T14:28:07;28.58;59.62
61000;SHT31;46879;45.658;11.814;2023-07-20T14:33:08;28.59;59.67
61000;SHT31;46879;45.658;11.814;2023-07-20T14:38:09;28.60;59.66
61000;SHT31;46879;45.658;11.814;2023-07-20T14:43:10;28.60;59.63
61000;SHT31;46879;45.658;11.814;2023-07-20T14:48:11;28.60;59.82
61000;SHT31;46879;45.658;11.814;2023-07-20T14:53:13;28.62;59.64
61000;SHT31;46879;45.658;11.814;2023-07-20T14:58:13;28.62;59.81
61000;SHT31;46879;45.658;11.814;2023-07-20T15:03:14;28.66;59.73
61000;SHT31;46879;45.658;11.814;2023-07-20T15:08:15;28.63;59.79
61000;SHT31;46879;45.658;11.814;2023-07-20T15:13:15;28.63;59.85
61000;SHT31;46879;45.658;11.814;2023-07-20T15:18:16;28.66;59.75
61000;SHT31;46879;45.658;11.814;2023-07-20T15:23:16;28.65;59.70
61000;SHT31;46879;45.658;11.814;2023-07-20T15:28:17;28.68;59.67
61000;SHT31;46879;45.658;11.814;2023-07-20T15:33:17;28.69;59.58
61000;SHT31;46879;45.658;11.814;2023-07-20T15:38:18;28.69;59.62
61000;SHT31;46879;45.658;11.814;2023-07-20T15:43:18;28.66;59.59
61000;SHT31;46879;45.658;11.814;2023-07-20T15:48:19;28.69;59.56
61000;SHT31;46879;45.658;11.814;2023-07-20T15:53:20;28.68;59.61
61000;SHT31;46879;45.658;11.814;2023-07-20T15:58:21;28.69;59.55
61000;SHT31;46879;45.658;11.814;2023-07-20T16:03:22;28.73;59.54
61000;SHT31;46879;45.658;11.814;2023-07-20T16:08:24;28.72;59.59
61000;SHT31;46879;45.658;11.814;2023-07-20T16:13:25;28.73;59.55
61000;SHT31;46879;45.658;11.814;2023-07-20T16:18:26;28.72;59.52
61000;SHT31;46879;45.658;11.814;2023-07-20T16:23:28;28.73;59.50
61000;SHT31;46879;45.658;11.814;2023-07-20T16:28:28;28.76;59.45
61000;SHT31;46879;45.658;11.814;2023-07-20T16:33:29;28.77;60.27
61000;SHT31;46879;45.658;11.814;2023-07-20T16:38:30;28.79;60.12
61000;SHT31;46879;45.658;11.814;2023-07-20T16:43:30;28.77;59.89
61000;SHT31;46879;45.658;11.814;2023-07-20T16:48:31;28.76;59.84
61000;SHT31;46879;45.658;11.814;2023-07-20T16:53:32;28.80;59.78
61000;SHT31;46879;45.658;11.814;2023-07-20T16:58:33;28.83;59.77
61000;SHT31;46879;45.658;11.814;2023-07-20T17:03:34;28.82;59.83
61000;SHT31;46879;45.658;11.814;2023-07-20T17:08:36;28.80;59.91
61000;SHT31;46879;45.658;11.814;2023-07-20T17:13:36;28.83;60.00
61000;SHT31;46879;45.658;11.814;2023-07-20T17:18:38;28.86;60.04
61000;SHT31;46879;45.658;11.814;2023-07-20T17:23:38;28.87;60.12
61000;SHT31;46879;45.658;11.814;2023-07-20T17:28:39;28.89;60.09
61000;SHT31;46879;45.658;11.814;2023-07-20T17:33:39;28.89;60.16
61000;SHT31;46879;45.658;11.814;2023-07-20T17:38:40;28.89;60.22
61000;SHT31;46879;45.658;11.814;2023-07-20T17:43:41;28.87;60.23
61000;SHT31;46879;45.658;11.814;2023-07-20T17:48:42;28.94;60.27
61000;SHT31;46879;45.658;11.814;2023-07-20T17:53:42;28.94;60.66
61000;SHT31;46879;45.658;11.814;2023-07-20T17:58:43;28.94;60.74
61000;SHT31;46879;45.658;11.814;2023-07-20T18:03:44;28.99;60.64
61000;SHT31;46879;45.658;11.814;2023-07-20T18:08:45;29.00;60.87
61000;SHT31;46879;45.658;11.814;2023-07-20T18:13:45;29.00;60.80
61000;SHT31;46879;45.658;11.814;2023-07-20T18:18:46;28.99;60.80
61000;SHT31;46879;45.658;11.814;2023-07-20T18:23:46;28.97;60.95
61000;SHT31;46879;45.658;11.814;2023-07-20T18:28:47;28.97;60.82
61000;SHT31;46879;45.658;11.814;2023-07-20T18:33:48;28.97;60.87
61000;SHT31;46879;45.658;11.814;2023-07-20T18:38:49;28.97;60.84
61000;SHT31;46879;45.658;11.814;2023-07-20T18:43:49;28.94;60.84
61000;SHT31;46879;45.658;11.814;2023-07-20T18:48:50;28.97;61.02
61000;SHT31;46879;45.658;11.814;2023-07-20T18:53:51;28.96;61.65
61000;SHT31;46879;45.658;11.814;2023-07-20T18:58:53;28.96;62.30
61000;SHT31;46879;45.658;11.814;2023-07-20T19:03:54;28.99;62.77
61000;SHT31;46879;45.658;11.814;2023-07-20T19:08:56;28.99;63.04
61000;SHT31;46879;45.658;11.814;2023-07-20T19:13:56;28.96;63.22
61000;SHT31;46879;45.658;11.814;2023-07-20T19:18:57;28.90;62.52
61000;SHT31;46879;45.658;11.814;2023-07-20T19:23:57;28.87;62.62
61000;SHT31;46879;45.658;11.814;2023-07-20T19:28:58;28.86;62.15
61000;SHT31;46879;45.658;11.814;2023-07-20T19:33:59;28.90;61.84
61000;SHT31;46879;45.658;11.814;2023-07-20T19:39:00;28.84;61.98
61000;SHT31;46879;45.658;11.814;2023-07-20T19:44:01;28.84;61.68
61000;SHT31;46879;45.658;11.814;2023-07-20T19:49:01;28.89;61.65
61000;SHT31;46879;45.658;11.814;2023-07-20T19:54:02;28.90;61.58
61000;SHT31;46879;45.658;11.814;2023-07-20T19:59:03;28.89;61.63
61000;SHT31;46879;45.658;11.814;2023-07-20T20:04:04;28.94;62.45
61000;SHT31;46879;45.658;11.814;2023-07-20T20:09:05;28.92;62.57
61000;SHT31;46879;45.658;11.814;2023-07-20T20:14:05;27.77;63.98
61000;SHT31;46879;45.658;11.814;2023-07-20T20:19:06;27.23;62.87
61000;SHT31;46879;45.658;11.814;2023-07-20T20:24:10;26.89;60.96
61000;SHT31;46879;45.658;11.814;2023-07-20T20:29:11;27.03;57.20
61000;SHT31;46879;45.658;11.814;2023-07-20T20:34:11;27.08;54.34
61000;SHT31;46879;45.658;11.814;2023-07-20T20:39:12;27.08;52.22
61000;SHT31;46879;45.658;11.814;2023-07-20T20:44:14;26.96;50.31
61000;SHT31;46879;45.658;11.814;2023-07-20T20:49:22;26.79;49.10
61000;SHT31;46879;45.658;11.814;2023-07-20T20:54:22;26.82;47.65
61000;SHT31;46879;45.658;11.814;2023-07-20T20:59:23;26.68;46.58
61000;SHT31;46879;45.658;11.814;2023-07-20T21:04:24;26.56;45.73
61000;SHT31;46879;45.658;11.814;2023-07-20T21:09:25;26.49;45.15
61000;SHT31;46879;45.658;11.814;2023-07-20T21:14:26;26.55;45.04
61000;SHT31;46879;45.658;11.814;2023-07-20T21:19:27;26.49;44.96
61000;SHT31;46879;45.658;11.814;2023-07-20T21:24:27;26.42;44.80
61000;SHT31;46879;45.658;11.814;2023-07-20T21:29:28;26.28;44.50
61000;SHT31;46879;45.658;11.814;2023-07-20T21:34:29;25.84;44.30
61000;SHT31;46879;45.658;11.814;2023-07-20T21:39:30;25.50;44.34
61000;SHT31;46879;45.658;11.814;2023-07-20T21:44:31;25.42;44.00
61000;SHT31;46879;45.658;11.814;2023-07-20T21:49:32;25.32;44.07
61000;SHT31;46879;45.658;11.814;2023-07-20T21:54:33;25.17;44.33
61000;SHT31;46879;45.658;11.814;2023-07-20T21:59:33;25.24;47.48
61000;SHT31;46879;45.658;11.814;2023-07-20T22:04:34;25.35;46.29
61000;SHT31;46879;45.658;11.814;2023-07-20T22:09:35;25.24;46.19
61000;SHT31;46879;45.658;11.814;2023-07-20T22:14:36;25.21;48.55
61000;SHT31;46879;45.658;11.814;2023-07-20T22:19:38;25.26;47.29
61000;SHT31;46879;45.658;11.814;2023-07-20T22:24:39;25.10;46.91
61000;SHT31;46879;45.658;11.814;2023-07-20T22:29:39;25.10;48.30
61000;SHT31;46879;45.658;11.814;2023-07-20T22:34:40;25.21;50.86
61000;SHT31;46879;45.658;11.814;2023-07-20T22:39:41;25.25;48.83
61000;SHT31;46879;45.658;11.814;2023-07-20T22:44:41;25.07;50.28
61000;SHT31;46879;45.658;11.814;2023-07-20T22:49:42;25.22;51.15
61000;SHT31;46879;45.658;11.814;2023-07-20T22:54:43;25.12;50.37
61000;SHT31;46879;45.658;11.814;2023-07-20T22:59:43;25.06;52.70
61000;SHT31;46879;45.658;11.814;2023-07-20T23:04:45;25.15;52.30
61000;SHT31;46879;45.658;11.814;2023-07-20T23:09:45;25.06;52.47
61000;SHT31;46879;45.658;11.814;2023-07-20T23:14:46;25.11;54.04
61000;SHT31;46879;45.658;11.814;2023-07-20T23:19:47;25.22;53.34
61000;SHT31;46879;45.658;11.814;2023-07-20T23:24:47;25.06;53.52
61000;SHT31;46879;45.658;11.814;2023-07-20T23:29:49;25.06;55.23
61000;SHT31;46879;45.658;11.814;2023-07-20T23:34:50;25.11;54.29
61000;SHT31;46879;45.658;11.814;2023-07-20T23:39:51;24.94;54.79
61000;SHT31;46879;45.658;11.814;2023-07-20T23:44:52;25.28;56.07
61000;SHT31;46879;45.658;11.814;2023-07-20T23:49:53;25.32;55.09
61000;SHT31;46879;45.658;11.814;2023-07-20T23:54:54;25.08;55.70
61000;SHT31;46879;45.658;11.814;2023-07-20T23:59:54;25.11;53.63
